Time;durP1;ratioP1;P1;durP2;ratioP2;P2;SDS_P1;SDS_P2;PMS_P1;PMS_P2;Temp;Humidity;BMP_temperature;BMP_pressure;BME280_temperature;BME280_humidity;BME280_pressure;Samples;Min_cycle;Max_cycle;Signal;HPM_P1;HPM_P2
2023/02/20 00:00:37;;;;;;;16.50;7.93;;;;;;;10.72;67.86;102577.06;4985984;28;20277;-44
2023/02/20 00:03:03;;;;;;;18.00;7.93;;;;;;;10.50;69.04;102580.50;4987464;28;20060;-44
2023/02/20 00:05:29;;;;;;;14.25;8.38;;;;;;;10.34;69.72;102582.44;4985778;28;20038;-45
2023/02/20 00:07:54;;;;;;;18.83;8.38;;;;;;;10.60;68.82;102578.28;4989755;28;20030;-46
2023/02/20 00:10:19;;;;;;;17.05;8.60;;;;;;;10.41;69.36;102576.66;4983782;28;20042;-45
2023/02/20 00:12:45;;;;;;;14.77;8.60;;;;;;;10.46;68.99;102573.41;4987944;28;20049;-44
2023/02/20 00:15:14;;;;;;;19.15;8.13;;;;;;;10.40;69.21;102567.94;4986151;28;20038;-44
2023/02/20 00:17:41;;;;;;;17.27;8.68;;;;;;;10.29;70.55;102557.88;4988781;28;20212;-48
2023/02/20 00:20:07;;;;;;;17.80;8.50;;;;;;;10.34;69.40;102553.75;4986198;28;20057;-48
2023/02/20 00:22:32;;;;;;;19.60;8.75;;;;;;;10.25;70.02;102559.47;4982274;28;20500;-46
2023/02/20 00:24:58;;;;;;;20.50;8.88;;;;;;;10.34;70.34;102557.25;4986803;28;20034;-44
2023/02/20 00:27:23;;;;;;;18.30;8.63;;;;;;;10.13;71.34;102549.38;4982783;28;20069;-45
2023/02/20 00:29:48;;;;;;;23.40;9.18;;;;;;;9.88;72.55;102543.97;4984614;28;20031;-43
2023/02/20 00:32:15;;;;;;;18.58;8.80;;;;;;;10.16;71.56;102544.34;4982079;28;20038;-44
2023/02/20 00:34:40;;;;;;;19.75;8.75;;;;;;;10.10;71.96;102551.00;4985459;28;20037;-51
2023/02/20 00:37:06;;;;;;;20.23;8.57;;;;;;;9.92;72.76;102540.69;4986704;28;20042;-43
2023/02/20 00:39:31;;;;;;;18.98;8.98;;;;;;;10.27;71.37;102544.78;4981198;28;20147;-46
2023/02/20 00:41:57;;;;;;;19.27;8.05;;;;;;;10.31;71.29;102543.19;4986791;28;20042;-47
2023/02/20 00:44:23;;;;;;;20.70;8.88;;;;;;;10.13;71.80;102548.50;4983136;28;20502;-44
2023/02/20 00:46:48;;;;;;;18.98;8.43;;;;;;;10.29;71.98;102552.69;4984854;28;20122;-43
2023/02/20 00:49:14;;;;;;;20.70;8.77;;;;;;;10.21;71.98;102541.03;4981402;28;20069;-46
2023/02/20 00:51:39;;;;;;;23.25;8.90;;;;;;;10.37;71.49;102541.72;4985612;28;20046;-44
2023/02/20 00:54:05;;;;;;;24.92;8.77;;;;;;;10.32;71.73;102524.09;4985460;28;20038;-42
2023/02/20 00:56:30;;;;;;;23.30;8.23;;;;;;;9.98;72.84;102527.91;4982255;28;25105;-47
2023/02/20 00:58:56;;;;;;;22.48;9.15;;;;;;;9.83;74.42;102522.03;4985876;28;20069;-44
2023/02/20 01:01:22;;;;;;;25.75;8.75;;;;;;;10.13;73.16;102519.81;4980097;28;20046;-43
2023/02/20 01:03:47;;;;;;;21.67;9.13;;;;;;;10.18;72.60;102520.06;4985357;28;20351;-44
2023/02/20 01:06:13;;;;;;;26.40;9.60;;;;;;;10.20;73.10;102521.91;4981780;28;20034;-46
2023/02/20 01:08:38;;;;;;;25.25;8.65;;;;;;;10.31;72.72;102514.50;4985509;28;20057;-43
2023/02/20 01:11:04;;;;;;;24.25;9.40;;;;;;;10.41;72.03;102503.63;4988416;28;20050;-42
2023/02/20 01:13:29;;;;;;;25.02;9.07;;;;;;;10.44;71.60;102498.53;4984928;28;20120;-49
2023/02/20 01:15:54;;;;;;;24.40;9.07;;;;;;;10.21;72.20;102494.13;4987203;28;20068;-45
2023/02/20 01:18:20;;;;;;;30.60;10.23;;;;;;;10.16;73.85;102489.63;4981279;28;20517;-45
2023/02/20 01:20:45;;;;;;;27.67;10.40;;;;;;;10.09;74.83;102489.25;4985483;28;20039;-47
2023/02/20 01:23:10;;;;;;;25.88;10.38;;;;;;;10.22;74.30;102488.09;4985521;28;20106;-46
2023/02/20 01:25:36;;;;;;;30.90;10.23;;;;;;;10.31;73.46;102481.50;4981371;28;20097;-43
2023/02/20 01:28:01;;;;;;;27.05;10.38;;;;;;;10.22;74.06;102481.16;4985320;28;20400;-44
2023/02/20 01:30:27;;;;;;;27.85;10.60;;;;;;;10.16;74.82;102475.66;4982323;28;20093;-44
2023/02/20 01:32:52;;;;;;;34.78;11.15;;;;;;;10.40;74.11;102483.59;4988402;28;20034;-44
2023/02/20 01:35:18;;;;;;;33.50;11.65;;;;;;;10.37;74.53;102473.06;4984874;28;20045;-50
2023/02/20 01:37:43;;;;;;;30.45;11.05;;;;;;;10.32;74.48;102472.88;4989089;28;20042;-49
2023/02/20 01:40:15;;;;;;;30.63;11.95;;;;;;;10.16;76.08;102462.63;4989197;28;20069;-44
2023/02/20 01:42:40;;;;;;;37.20;11.90;;;;;;;10.37;76.01;102460.03;4985918;28;20038;-46
2023/02/20 01:45:21;;;;;;;37.13;12.02;;;;;;;10.43;76.67;102455.91;4990568;28;20413;-43
2023/02/20 01:47:47;;;;;;;31.30;12.40;;;;;;;10.76;74.85;102443.28;4982039;28;20042;-44
2023/02/20 01:50:14;;;;;;;35.88;12.52;;;;;;;10.91;74.03;102448.22;4982686;28;20497;-46
2023/02/20 01:52:42;;;;;;;37.70;12.27;;;;;;;10.73;74.49;102444.91;4986254;28;20046;-43
2023/02/20 01:55:09;;;;;;;38.80;13.70;;;;;;;10.22;76.48;102441.16;4986339;28;20031;-48
2023/02/20 01:57:37;;;;;;;37.00;13.00;;;;;;;10.58;76.27;102437.38;4982397;28;20041;-47
2023/02/20 02:00:08;;;;;;;37.15;12.65;;;;;;;10.68;75.50;102433.38;4985916;28;20340;-45
2023/02/20 02:02:39;;;;;;;36.63;12.57;;;;;;;10.86;74.70;102437.56;4986318;28;20061;-46
2023/02/20 02:05:06;;;;;;;39.30;12.75;;;;;;;10.72;75.02;102433.59;4990101;28;20105;-46
2023/02/20 02:07:31;;;;;;;33.58;12.73;;;;;;;10.70;74.85;102421.31;4986156;28;20034;-45
2023/02/20 02:10:02;;;;;;;33.97;12.18;;;;;;;10.79;75.21;102419.94;4989181;28;20038;-47
2023/02/20 02:12:28;;;;;;;38.58;12.20;;;;;;;10.38;76.46;102423.56;4984906;28;20041;-52
2023/02/20 02:14:53;;;;;;;37.33;12.85;;;;;;;10.41;76.78;102417.59;4988468;28;20039;-45
2023/02/20 02:17:43;;;;;;;34.33;12.20;;;;;;;10.36;76.54;102403.50;4985275;28;20069;-43
2023/02/20 02:20:27;;;;;;;28.08;11.27;;;;;;;10.95;74.79;102406.63;4988753;28;20061;-45
2023/02/20 02:23:04;;;;;;;35.50;11.48;;;;;;;10.62;75.87;102410.56;4985685;28;20050;-44
2023/02/20 02:25:34;;;;;;;30.00;11.27;;;;;;;10.64;75.56;102405.44;4985687;28;20034;-44
2023/02/20 02:28:37;;;;;;;33.25;11.55;;;;;;;10.42;75.60;102401.13;4988886;28;20038;-46
2023/02/20 02:31:39;;;;;;;30.13;11.90;;;;;;;10.49;76.07;102397.94;4985891;28;20378;-49
2023/02/20 02:35:00;;;;;;;29.08;11.90;;;;;;;10.65;75.44;102402.88;4984685;28;20034;-43
2023/02/20 02:37:53;;;;;;;31.58;10.70;;;;;;;10.43;76.12;102395.94;5003686;28;20489;-44
2023/02/20 02:40:42;;;;;;;31.52;11.10;;;;;;;10.48;76.14;102396.16;5005351;28;20711;-44
2023/02/20 02:43:22;;;;;;;30.00;10.70;;;;;;;10.28;77.07;102397.09;5009750;28;20492;-44
2023/02/20 02:45:54;;;;;;;30.75;10.68;;;;;;;10.79;75.35;102396.47;5006339;28;20072;-45
2023/02/20 02:48:31;;;;;;;31.05;10.90;;;;;;;10.68;75.85;102399.47;5009455;28;20033;-43
2023/02/20 02:51:02;;;;;;;33.92;10.32;;;;;;;10.66;75.75;102394.22;5005509;28;20073;-50
2023/02/20 02:53:27;;;;;;;32.58;10.80;;;;;;;10.72;75.56;102398.78;5003412;28;20381;-47
2023/02/20 02:55:53;;;;;;;28.35;10.60;;;;;;;10.69;75.92;102402.16;5006747;28;20084;-44
2023/02/20 02:58:19;;;;;;;27.55;10.60;;;;;;;10.72;75.58;102391.84;5003150;28;20534;-44
2023/02/20 03:00:57;;;;;;;30.73;10.40;;;;;;;10.73;75.47;102391.03;5006886;28;20500;-50
2023/02/20 03:03:33;;;;;;;25.38;9.77;;;;;;;10.93;74.66;102387.41;5004167;28;20041;-44
2023/02/20 03:06:05;;;;;;;30.60;9.68;;;;;;;10.85;74.89;102393.19;5007122;28;20034;-45
2023/02/20 03:08:39;;;;;;;26.42;9.52;;;;;;;10.90;74.93;102387.31;5002142;28;20443;-46
2023/02/20 03:11:16;;;;;;;26.33;9.07;;;;;;;10.60;75.69;102388.78;5006206;28;20046;-47
2023/02/20 03:16:54;;;;;;;25.83;8.02;;;;;;;10.87;75.28;102388.91;5005640;28;20048;-49
2023/02/20 03:19:26;;;;;;;25.95;7.78;;;;;;;11.01;74.73;102392.00;5003888;28;20042;-44
2023/02/20 03:21:55;;;;;;;22.60;7.90;;;;;;;10.97;75.22;102386.69;5005882;28;20069;-44
2023/02/20 03:24:23;;;;;;;24.13;8.18;;;;;;;10.74;75.63;102392.78;5001963;28;20042;-43
2023/02/20 03:26:52;;;;;;;23.52;7.90;;;;;;;10.84;75.46;102391.41;5006037;28;20041;-44
2023/02/20 03:29:33;;;;;;;24.88;8.38;;;;;;;10.70;75.53;102396.13;5001506;28;20492;-43
2023/02/20 03:43:24;;;;;;;30.30;10.13;;;;;;;11.26;74.03;102382.50;5002283;28;20634;-44
2023/02/20 03:45:58;;;;;;;30.77;10.32;;;;;;;10.84;74.58;102374.03;5002223;28;20044;-47
2023/02/20 03:48:47;;;;;;;29.23;10.48;;;;;;;11.11;74.76;102365.38;5001664;28;20496;-46
2023/02/20 03:51:13;;;;;;;33.28;10.52;;;;;;;11.05;74.89;102366.06;5006047;28;20044;-47
2023/02/20 03:53:40;;;;;;;28.80;10.80;;;;;;;10.90;75.30;102368.16;5002601;28;20029;-48
2023/02/20 03:56:11;;;;;;;25.25;10.27;;;;;;;11.05;74.64;102365.16;5007215;28;20457;-44
2023/02/20 03:58:39;;;;;;;30.10;10.80;;;;;;;10.97;75.40;102359.72;5002802;28;20092;-45
2023/02/20 04:01:07;;;;;;;31.90;10.18;;;;;;;11.04;74.25;102361.66;4988757;28;20034;-44
2023/02/20 04:03:38;;;;;;;26.55;9.63;;;;;;;11.17;74.51;102358.66;5003596;28;26002;-46
2023/02/20 04:06:07;;;;;;;26.60;10.25;;;;;;;10.82;75.30;102349.59;5007518;28;20041;-45
2023/02/20 04:08:40;;;;;;;31.92;10.10;;;;;;;11.22;73.94;102364.91;5002525;28;20038;-48
2023/02/20 04:11:14;;;;;;;29.15;10.35;;;;;;;10.92;74.86;102363.84;5006006;28;20038;-47
2023/02/20 04:13:40;;;;;;;31.77;10.05;;;;;;;10.56;75.87;102372.13;4970816;28;20523;-49
2023/02/20 04:16:07;;;;;;;30.08;9.65;;;;;;;11.07;74.89;102373.97;5008898;28;20057;-44
2023/02/20 04:18:34;;;;;;;24.13;9.00;;;;;;;11.31;73.33;102369.59;5003129;28;20484;-45
2023/02/20 04:21:03;;;;;;;30.17;9.98;;;;;;;11.06;74.21;102359.13;5005131;28;20040;-45
2023/02/20 04:23:33;;;;;;;26.25;9.60;;;;;;;10.82;75.40;102362.66;5001292;28;20034;-45
2023/02/20 04:26:03;;;;;;;31.83;9.90;;;;;;;11.19;74.12;102356.09;5006532;28;20117;-44
2023/02/20 04:28:29;;;;;;;21.15;8.88;;;;;;;11.15;73.83;102351.63;5000334;28;20034;-43
2023/02/20 04:30:55;;;;;;;24.80;9.73;;;;;;;10.84;74.47;102366.22;5005165;28;20133;-44
2023/02/20 04:33:22;;;;;;;25.05;9.23;;;;;;;11.20;73.69;102365.72;4983888;28;20124;-47
2023/02/20 04:35:48;;;;;;;27.42;9.95;;;;;;;10.74;74.85;102363.19;5004889;28;20044;-44
2023/02/20 04:38:13;;;;;;;25.35;9.23;;;;;;;10.90;74.13;102366.44;5001584;28;20030;-63
2023/02/20 04:40:39;;;;;;;24.05;9.27;;;;;;;11.16;73.78;102369.06;5008321;28;20029;-45
2023/02/20 04:43:05;;;;;;;24.15;9.40;;;;;;;11.22;72.72;102374.50;5003225;28;20431;-45
2023/02/20 04:45:31;;;;;;;24.75;9.27;;;;;;;10.91;74.17;102369.94;5000773;28;20038;-44
2023/02/20 04:47:57;;;;;;;24.77;8.90;;;;;;;11.37;72.33;102375.00;5005088;28;20048;-44
2023/02/20 04:50:29;;;;;;;27.83;9.65;;;;;;;11.02;73.31;102359.88;5000251;28;20041;-43
2023/02/20 04:52:54;;;;;;;24.70;10.13;;;;;;;11.13;72.92;102371.56;5004702;28;20038;-43
2023/02/20 04:55:20;;;;;;;25.88;9.93;;;;;;;10.76;74.13;102362.44;5000815;28;20044;-44
2023/02/20 04:57:47;;;;;;;23.55;9.77;;;;;;;11.16;73.21;102361.25;5006610;28;20063;-45
2023/02/20 05:00:14;;;;;;;22.38;8.90;;;;;;;11.23;72.33;102376.25;5003811;28;20088;-44
2023/02/20 05:02:40;;;;;;;27.33;10.23;;;;;;;11.08;73.51;102373.13;5007015;28;20038;-47
2023/02/20 05:05:13;;;;;;;29.17;9.57;;;;;;;11.16;72.04;102374.28;5004962;28;20048;-46
2023/02/20 05:07:39;;;;;;;24.65;9.63;;;;;;;10.96;73.10;102369.25;5001365;28;20084;-44
2023/02/20 05:10:04;;;;;;;26.60;10.70;;;;;;;10.60;74.52;102375.75;5004910;28;20070;-44
2023/02/20 05:12:30;;;;;;;27.20;10.07;;;;;;;10.86;73.82;102374.06;5001738;28;20073;-45
2023/02/20 05:14:55;;;;;;;21.92;9.73;;;;;;;10.89;73.44;102376.81;5007520;28;20080;-45
2023/02/20 05:17:20;;;;;;;24.77;9.90;;;;;;;10.79;73.74;102386.03;5006157;28;20034;-44
2023/02/20 05:19:46;;;;;;;25.77;10.23;;;;;;;10.96;73.20;102384.91;5006117;28;20382;-44
2023/02/20 05:22:17;;;;;;;22.83;9.93;;;;;;;10.82;73.41;102377.41;5002059;28;20073;-44
2023/02/20 05:24:44;;;;;;;25.45;9.75;;;;;;;11.05;73.06;102383.44;5005933;28;20065;-44
2023/02/20 05:27:10;;;;;;;21.17;9.70;;;;;;;11.06;72.40;102387.84;5005828;28;20026;-43
2023/02/20 05:29:35;;;;;;;26.08;10.18;;;;;;;10.94;72.83;102378.75;5002877;28;20499;-46
2023/02/20 05:32:01;;;;;;;26.30;9.57;;;;;;;11.05;72.14;102384.34;5004371;28;20054;-47
2023/02/20 05:34:26;;;;;;;20.92;9.65;;;;;;;10.91;72.79;102377.75;4999789;28;20040;-44
2023/02/20 05:36:53;;;;;;;28.17;9.25;;;;;;;11.05;72.29;102383.44;4985950;28;20041;-45
2023/02/20 05:39:18;;;;;;;21.20;9.23;;;;;;;10.93;72.65;102382.19;5000549;28;20037;-46
2023/02/20 05:41:44;;;;;;;24.92;9.32;;;;;;;10.93;72.33;102379.56;5005374;28;20041;-46
2023/02/20 05:44:09;;;;;;;31.48;9.00;;;;;;;10.99;72.04;102381.50;4986946;28;20037;-44
2023/02/20 05:46:40;;;;;;;25.73;9.93;;;;;;;10.68;73.37;102376.91;4999669;28;20117;-43
2023/02/20 05:49:05;;;;;;;22.80;9.23;;;;;;;10.80;72.61;102373.84;5004994;28;20105;-44
2023/02/20 05:51:31;;;;;;;22.92;9.40;;;;;;;10.44;73.60;102379.50;5000693;28;20362;-44
2023/02/20 05:53:56;;;;;;;19.50;9.00;;;;;;;10.76;73.63;102366.75;5004914;28;20515;-44
2023/02/20 05:56:22;;;;;;;24.92;9.85;;;;;;;10.78;73.02;102368.59;5000355;28;20030;-44
2023/02/20 05:58:48;;;;;;;22.83;9.85;;;;;;;10.68;72.99;102370.78;5003942;28;20065;-41
2023/02/20 06:01:32;;;;;;;23.67;9.75;;;;;;;10.48;74.40;102378.78;5000750;28;20472;-44
2023/02/20 06:04:00;;;;;;;20.70;9.63;;;;;;;10.95;72.88;102366.59;5004152;28;20100;-46
2023/02/20 06:06:31;;;;;;;25.55;10.02;;;;;;;10.75;73.44;102360.66;5000145;28;20488;-46
2023/02/20 06:08:56;;;;;;;27.65;9.70;;;;;;;10.67;73.24;102362.13;5004469;28;20037;-45
2023/02/20 06:11:22;;;;;;;26.00;9.95;;;;;;;10.83;72.77;102364.44;4999858;28;20389;-45
2023/02/20 06:13:47;;;;;;;25.40;9.80;;;;;;;10.64;74.29;102369.81;5003953;28;20523;-47
2023/02/20 06:16:13;;;;;;;27.73;9.18;;;;;;;10.67;73.30;102379.47;4999605;28;20046;-45
2023/02/20 06:18:39;;;;;;;26.17;9.13;;;;;;;10.84;73.23;102371.44;5003194;28;20045;-44
2023/02/20 06:21:09;;;;;;;21.88;9.15;;;;;;;10.68;73.39;102387.34;5003279;28;20038;-45
2023/02/20 06:23:36;;;;;;;25.13;9.88;;;;;;;10.76;73.52;102379.78;4999840;28;20061;-44
2023/02/20 06:26:01;;;;;;;23.35;9.20;;;;;;;10.46;73.42;102370.00;5003390;28;20061;-45
2023/02/20 06:28:27;;;;;;;26.58;9.52;;;;;;;10.65;73.60;102360.25;4999483;28;20057;-45
2023/02/20 06:30:52;;;;;;;28.27;9.30;;;;;;;10.47;74.71;102363.97;5003228;28;20121;-44
2023/02/20 06:33:17;;;;;;;24.77;9.43;;;;;;;11.00;72.92;102370.25;4999722;28;20057;-46
2023/02/20 06:35:43;;;;;;;23.95;8.85;;;;;;;10.92;72.70;102371.69;5004370;28;20455;-43
2023/02/20 06:38:08;;;;;;;24.08;9.20;;;;;;;10.65;73.86;102375.91;5005099;28;20108;-47
2023/02/20 06:40:33;;;;;;;23.20;9.40;;;;;;;10.67;73.63;102376.88;5000175;28;20046;-45
2023/02/20 06:42:59;;;;;;;21.33;9.35;;;;;;;10.67;73.50;102374.25;5004987;28;20091;-45
2023/02/20 06:45:24;;;;;;;23.10;9.00;;;;;;;10.91;73.14;102370.81;5001486;28;20436;-43
2023/02/20 06:47:49;;;;;;;18.98;8.15;;;;;;;11.14;72.50;102369.00;5008247;28;20108;-47
2023/02/20 06:50:15;;;;;;;24.10;8.80;;;;;;;11.12;71.80;102370.66;5004151;28;20030;-43
2023/02/20 06:52:40;;;;;;;25.60;8.80;;;;;;;10.89;72.98;102377.69;5008785;28;20038;-48
2023/02/20 06:55:06;;;;;;;22.52;8.70;;;;;;;10.82;73.39;102359.16;5008950;28;20163;-43
2023/02/20 06:57:31;;;;;;;26.27;8.45;;;;;;;11.25;71.90;102371.97;5005855;28;20030;-43
2023/02/20 06:59:57;;;;;;;24.30;8.48;;;;;;;10.89;73.05;102371.59;5008795;28;20030;-46
2023/02/20 07:02:22;;;;;;;21.80;8.20;;;;;;;10.46;74.15;102382.16;5003786;28;20034;-44
2023/02/20 07:04:48;;;;;;;23.75;7.90;;;;;;;10.75;73.49;102367.56;5008477;28;20404;-43
2023/02/20 07:07:14;;;;;;;23.08;7.75;;;;;;;10.45;74.71;102382.97;5007848;28;20034;-44
2023/02/20 07:09:39;;;;;;;25.80;8.30;;;;;;;10.61;74.17;102381.84;5003541;28;20581;-46
2023/02/20 07:12:05;;;;;;;23.10;7.68;;;;;;;10.61;74.27;102380.13;5008050;28;20506;-45
2023/02/20 07:14:30;;;;;;;24.13;8.10;;;;;;;10.77;74.10;102377.25;5007733;28;20570;-43
2023/02/20 07:16:55;;;;;;;23.23;8.00;;;;;;;10.99;73.21;102382.41;5011388;28;20034;-47
2023/02/20 07:19:21;;;;;;;24.00;7.97;;;;;;;10.99;74.00;102385.00;5001967;28;20042;-45
2023/02/20 07:21:46;;;;;;;20.23;7.85;;;;;;;10.96;73.89;102384.03;5006636;28;20526;-43
2023/02/20 07:24:12;;;;;;;23.30;7.55;;;;;;;11.12;72.42;102386.31;5002912;28;20092;-45
2023/02/20 07:26:38;;;;;;;23.65;8.02;;;;;;;11.37;71.54;102383.75;5006634;28;20038;-43
2023/02/20 07:29:05;;;;;;;17.52;7.50;;;;;;;10.76;73.70;102380.69;5005914;28;20045;-45
2023/02/20 07:31:30;;;;;;;19.90;7.93;;;;;;;10.83;73.43;102379.19;5002257;28;20133;-45
2023/02/20 07:33:56;;;;;;;19.58;7.88;;;;;;;10.72;73.91;102385.75;5007149;28;20037;-44
2023/02/20 07:36:21;;;;;;;20.60;8.43;;;;;;;10.50;74.76;102387.53;5004694;28;20057;-46
2023/02/20 07:38:58;;;;;;;21.48;7.70;;;;;;;10.83;73.98;102380.09;5006197;28;20065;-44
2023/02/20 07:41:28;;;;;;;17.25;7.40;;;;;;;10.81;74.39;102381.75;5003430;28;20092;-45
2023/02/20 07:43:54;;;;;;;23.80;8.60;;;;;;;11.13;72.52;102371.56;5007703;28;20033;-44
2023/02/20 07:46:19;;;;;;;24.35;7.80;;;;;;;11.38;72.35;102372.47;5003575;28;20407;-45
2023/02/20 07:48:44;;;;;;;21.67;8.35;;;;;;;11.16;72.49;102380.38;5007012;28;20065;-43
2023/02/20 07:51:09;;;;;;;19.40;8.35;;;;;;;11.22;72.65;102385.81;5006571;28;20045;-43
2023/02/20 07:53:35;;;;;;;20.85;8.65;;;;;;;11.05;73.16;102386.94;5002406;28;20080;-46
2023/02/20 07:56:00;;;;;;;24.67;8.82;;;;;;;11.21;71.83;102383.16;5005697;28;20049;-44
2023/02/20 07:58:25;;;;;;;24.92;8.82;;;;;;;11.02;72.82;102385.97;5001034;28;20042;-44
2023/02/20 08:00:52;;;;;;;17.80;8.60;;;;;;;11.39;71.46;102389.91;5006715;28;20045;-45
2023/02/20 08:03:18;;;;;;;24.10;8.95;;;;;;;11.13;72.01;102388.13;5004866;28;20452;-46
2023/02/20 08:05:43;;;;;;;19.98;9.20;;;;;;;10.93;72.94;102382.19;5007608;28;20038;-48
2023/02/20 08:08:09;;;;;;;21.52;9.32;;;;;;;11.11;72.88;102395.00;5007156;28;20034;-45
2023/02/20 08:10:34;;;;;;;19.98;8.98;;;;;;;11.03;72.31;102386.03;5004849;28;20034;-43
2023/02/20 08:13:01;;;;;;;22.88;9.57;;;;;;;11.02;73.00;102402.50;5008767;28;20071;-49
2023/02/20 08:15:27;;;;;;;19.92;9.27;;;;;;;10.91;73.21;102386.47;5003276;28;20038;-44
2023/02/20 08:17:52;;;;;;;22.25;9.23;;;;;;;10.94;73.02;102393.50;5006023;28;20044;-48
2023/02/20 08:20:19;;;;;;;21.60;9.05;;;;;;;11.15;72.96;102396.91;5002122;28;20164;-45
2023/02/20 08:22:46;;;;;;;25.85;9.40;;;;;;;11.10;72.62;102384.53;5004462;28;20033;-44
2023/02/20 08:25:12;;;;;;;19.80;9.32;;;;;;;10.70;73.70;102380.47;5009592;28;20042;-43
2023/02/20 08:27:41;;;;;;;18.70;8.48;;;;;;;10.86;73.12;102394.94;5002575;28;20036;-45
2023/02/20 08:30:10;;;;;;;20.13;9.48;;;;;;;11.22;72.15;102390.16;5003864;28;20038;-43
2023/02/20 08:32:36;;;;;;;20.30;8.85;;;;;;;10.82;73.73;102386.13;5000405;28;20112;-43
2023/02/20 08:35:01;;;;;;;19.13;8.55;;;;;;;11.09;72.32;102396.69;5005194;28;20089;-46
2023/02/20 08:37:26;;;;;;;18.45;8.93;;;;;;;10.88;73.62;102388.97;5001069;28;20196;-46
2023/02/20 08:39:52;;;;;;;23.85;9.15;;;;;;;11.03;72.95;102391.25;5003825;28;20092;-44
2023/02/20 08:42:17;;;;;;;21.13;8.80;;;;;;;11.42;71.92;102388.22;5000700;28;20041;-47
2023/02/20 08:44:42;;;;;;;19.67;8.40;;;;;;;11.54;70.64;102389.53;5003944;28;20451;-44
2023/02/20 08:47:08;;;;;;;20.42;8.85;;;;;;;11.05;72.72;102391.28;5004269;28;20439;-44
2023/02/20 08:49:33;;;;;;;16.70;8.15;;;;;;;10.95;73.53;102385.75;4999921;28;20133;-47
2023/02/20 08:51:58;;;;;;;17.15;7.30;;;;;;;11.72;71.02;102386.63;5003888;28;20113;-44
2023/02/20 08:54:24;;;;;;;14.45;7.13;;;;;;;11.65;70.55;102380.31;4999044;28;20579;-44
2023/02/20 08:56:49;;;;;;;15.90;7.00;;;;;;;11.19;71.47;102384.81;5005108;28;20049;-44
2023/02/20 08:59:14;;;;;;;16.65;6.50;;;;;;;11.68;70.79;102363.88;5000878;28;20042;-45
2023/02/20 09:01:41;;;;;;;16.80;6.72;;;;;;;11.08;71.96;102360.97;5004146;28;20129;-43
2023/02/20 09:04:07;;;;;;;14.70;6.50;;;;;;;11.64;70.71;102364.63;5005032;28;20034;-43
2023/02/20 09:06:33;;;;;;;13.55;6.60;;;;;;;11.30;71.87;102370.41;5000972;28;20117;-46
2023/02/20 09:08:59;;;;;;;14.82;6.68;;;;;;;11.59;70.90;102369.66;4987106;28;20418;-45
2023/02/20 09:11:25;;;;;;;19.65;6.90;;;;;;;11.36;71.47;102375.84;5002579;28;20037;-46
2023/02/20 09:13:51;;;;;;;16.42;6.20;;;;;;;11.67;70.75;102378.66;5007881;28;20042;-44
2023/02/20 09:16:19;;;;;;;15.98;6.63;;;;;;;11.57;71.09;102373.06;5001821;28;20512;-44
2023/02/20 09:18:45;;;;;;;14.60;6.53;;;;;;;11.89;70.39;102375.06;5004716;28;20053;-44
2023/02/20 09:21:11;;;;;;;13.80;6.40;;;;;;;11.84;69.87;102381.84;5004747;28;20407;-44
2023/02/20 09:23:38;;;;;;;12.35;6.25;;;;;;;12.00;69.64;102372.78;5001505;28;20085;-44
2023/02/20 09:26:04;;;;;;;12.23;6.20;;;;;;;11.94;69.73;102388.25;5005449;28;20034;-47
2023/02/20 09:28:29;;;;;;;13.70;6.72;;;;;;;11.72;70.89;102394.47;5002345;28;20546;-44
2023/02/20 09:30:56;;;;;;;15.60;6.65;;;;;;;11.89;69.60;102398.56;5006440;28;20042;-44
2023/02/20 09:33:22;;;;;;;13.05;6.32;;;;;;;11.44;71.14;102399.63;5002217;28;20053;-47
2023/02/20 09:35:50;;;;;;;13.80;6.18;;;;;;;11.63;70.18;102402.00;5006223;28;20034;-45
2023/02/20 09:38:17;;;;;;;13.35;6.28;;;;;;;11.52;70.88;102395.56;5000703;28;20046;-45
2023/02/20 09:40:45;;;;;;;13.73;6.20;;;;;;;11.86;70.09;102390.63;5004693;28;20088;-45
2023/02/20 09:43:33;;;;;;;12.90;6.25;;;;;;;11.90;69.51;102388.97;5004018;28;20056;-45
2023/02/20 09:46:08;;;;;;;10.98;5.68;;;;;;;11.37;71.82;102401.13;5003110;28;20042;-44
2023/02/20 09:49:12;;;;;;;14.25;5.53;;;;;;;11.69;70.67;102394.38;5000745;28;20033;-46
2023/02/20 09:51:44;;;;;;;11.57;5.10;;;;;;;11.79;70.55;102383.41;4983709;28;20040;-43
2023/02/20 09:54:16;;;;;;;9.98;5.22;;;;;;;11.74;69.66;102387.59;5003559;28;20046;-43
2023/02/20 09:56:48;;;;;;;11.00;4.75;;;;;;;11.51;70.92;102399.88;5000610;28;20034;-44
2023/02/20 09:59:25;;;;;;;10.98;5.53;;;;;;;11.72;70.02;102386.63;5000497;28;20117;-46
2023/02/20 10:02:23;;;;;;;14.07;5.40;;;;;;;11.64;70.96;102388.13;5003618;28;20049;-45
2023/02/20 10:04:56;;;;;;;12.52;6.10;;;;;;;11.72;70.65;102389.25;4999001;28;20038;-45
2023/02/20 10:07:28;;;;;;;15.88;6.70;;;;;;;11.82;70.33;102386.16;4999626;28;20073;-45
2023/02/20 10:09:54;;;;;;;14.23;7.03;;;;;;;11.34;71.38;102382.75;5001706;28;20469;-45
2023/02/20 10:12:37;;;;;;;15.55;7.82;;;;;;;11.30;72.13;102392.19;5003150;28;20041;-44
2023/02/20 10:15:20;;;;;;;19.92;7.40;;;;;;;11.70;70.31;102393.53;5034947;23;20111;-41
2023/02/20 10:18:10;;;;;;;14.30;7.70;;;;;;;11.78;70.01;102368.56;5037768;28;20053;-45
2023/02/20 10:21:02;;;;;;;13.68;6.82;;;;;;;11.78;70.35;102376.41;5037552;28;20577;-42
2023/02/20 10:23:50;;;;;;;17.35;6.63;;;;;;;11.44;71.29;102395.28;5040825;28;20029;-39
2023/02/20 10:26:27;;;;;;;14.98;6.60;;;;;;;11.46;71.13;102393.63;5026652;28;20040;-40
2023/02/20 10:28:56;;;;;;;13.55;6.55;;;;;;;11.72;70.43;102373.56;5024838;28;20037;-43
2023/02/20 10:31:40;;;;;;;14.82;6.97;;;;;;;11.63;71.04;102365.44;5003079;28;20029;-41
2023/02/20 10:34:15;;;;;;;16.60;7.43;;;;;;;11.58;70.55;102369.63;5025180;28;20296;-41
2023/02/20 10:37:05;;;;;;;13.93;6.50;;;;;;;11.75;70.19;102379.81;5021256;28;20075;-42
2023/02/20 10:39:32;;;;;;;14.57;6.68;;;;;;;11.69;70.58;102379.59;5019438;28;20103;-41
2023/02/20 10:42:01;;;;;;;13.35;6.93;;;;;;;11.62;71.15;102385.44;5024872;28;20144;-41
2023/02/20 10:44:40;;;;;;;13.75;6.53;;;;;;;11.62;71.10;102387.16;5019387;28;20499;-41
2023/02/20 10:47:25;;;;;;;13.15;5.63;;;;;;;11.51;71.38;102365.94;5025977;28;20041;-42
2023/02/20 10:49:59;;;;;;;14.15;6.30;;;;;;;11.56;70.95;102376.53;5023685;28;20446;-43
2023/02/20 10:52:27;;;;;;;;;;;;;;;11.61;70.92;102373.22;5025047;28;20041;-41
2023/02/20 10:55:07;;;;;;;15.95;6.03;;;;;;;11.74;70.65;102385.88;5027781;28;20417;-42
2023/02/20 10:57:55;;;;;;;12.65;5.93;;;;;;;11.50;70.93;102366.75;5024885;28;20037;-41
2023/02/20 11:00:32;;;;;;;11.57;5.97;;;;;;;11.79;70.40;102375.56;5023836;28;20080;-43
2023/02/20 11:03:07;;;;;;;11.20;5.53;;;;;;;11.37;71.58;102393.28;5028546;28;20038;-41
2023/02/20 11:05:39;;;;;;;13.88;5.65;;;;;;;11.55;71.19;102379.97;5024222;28;20040;-43
2023/02/20 11:08:05;;;;;;;14.38;5.47;;;;;;;11.82;70.38;102374.81;5027712;28;20036;-42
2023/02/20 11:10:31;;;;;;;14.15;6.10;;;;;;;11.52;71.45;102370.31;5024327;28;20041;-43
2023/02/20 11:13:01;;;;;;;13.90;5.57;;;;;;;11.95;70.29;102372.63;5027844;28;20063;-44
2023/02/20 11:15:32;;;;;;;11.05;5.30;;;;;;;11.72;70.57;102358.78;5023495;28;20061;-45
2023/02/20 11:17:58;;;;;;;13.82;5.63;;;;;;;11.65;70.46;102363.75;5028483;28;20037;-42
2023/02/20 11:20:41;;;;;;;11.30;5.03;;;;;;;12.12;69.18;102355.75;5023949;28;20029;-41
2023/02/20 11:23:07;;;;;;;13.27;4.90;;;;;;;11.90;70.08;102342.81;5028117;28;20060;-41
2023/02/20 11:25:37;;;;;;;13.98;4.80;;;;;;;11.53;71.27;102343.34;5021643;28;20507;-42
2023/02/20 11:28:20;;;;;;;11.52;5.05;;;;;;;11.95;69.65;102335.16;5027605;28;20071;-42
2023/02/20 11:30:49;;;;;;;12.60;5.05;;;;;;;12.00;69.48;102307.44;5003772;28;20550;-42
2023/02/20 11:33:14;;;;;;;11.93;5.10;;;;;;;11.95;69.69;102312.53;5014060;28;20061;-40
2023/02/20 11:35:41;;;;;;;12.90;5.57;;;;;;;11.96;69.84;102331.66;5025653;28;20092;-42
2023/02/20 11:38:26;;;;;;;12.10;4.72;;;;;;;12.02;70.05;102327.53;5024684;28;20038;-43
2023/02/20 11:40:52;;;;;;;12.45;4.50;;;;;;;12.11;69.45;102342.63;5021002;28;20137;-42